createdAt,value
2023-02-21T00:02:11.757Z,2.87
2023-02-21T00:04:57.731Z,2.40
2023-02-21T00:07:45.997Z,2.43
2023-02-21T00:10:33.647Z,2.40
2023-02-21T00:13:19.972Z,2.20
2023-02-21T00:16:07.573Z,2.23
2023-02-21T00:18:56.315Z,2.60
2023-02-21T00:21:42.571Z,3.30
2023-02-21T00:24:31.947Z,2.60
2023-02-21T00:27:17.860Z,2.63
2023-02-21T00:30:03.288Z,2.50
2023-02-21T00:32:50.506Z,2.40
2023-02-21T00:35:36.249Z,2.13
2023-02-21T00:38:24.922Z,2.57
2023-02-21T00:41:13.178Z,2.50
2023-02-21T00:44:00.079Z,1.90
2023-02-21T00:46:45.813Z,2.00
2023-02-21T00:49:32.876Z,2.67
2023-02-21T00:52:18.506Z,2.60
2023-02-21T00:55:04.252Z,2.80
2023-02-21T00:57:49.822Z,2.63
2023-02-21T01:00:40.421Z,2.77
2023-02-21T01:03:29.342Z,2.40
2023-02-21T01:06:16.225Z,3.20
2023-02-21T01:09:03.069Z,2.67
2023-02-21T01:11:49.510Z,3.10
2023-02-21T01:14:35.941Z,2.83
2023-02-21T01:17:21.925Z,2.33
2023-02-21T01:20:07.688Z,2.57
2023-02-21T01:22:54.922Z,2.10
2023-02-21T01:25:40.870Z,1.47
2023-02-21T01:28:27.174Z,2.03
2023-02-21T01:31:13.420Z,1.70
2023-02-21T01:34:00.422Z,1.73
2023-02-21T01:36:46.210Z,2.77
2023-02-21T01:39:33.942Z,2.30
2023-02-21T01:42:40.042Z,1.80
2023-02-21T01:46:04.331Z,2.30
2023-02-21T01:48:53.858Z,2.20
2023-02-21T01:51:42.905Z,2.13
2023-02-21T01:54:29.102Z,1.90
2023-02-21T01:57:19.403Z,1.60
2023-02-21T02:00:05.184Z,2.03
2023-02-21T02:02:56.470Z,2.37
2023-02-21T02:05:43.961Z,1.87
2023-02-21T02:08:37.643Z,1.87
2023-02-21T02:11:30.860Z,2.00
2023-02-21T02:14:19.924Z,2.00
2023-02-21T02:16:55.216Z,1.80
2023-02-21T02:19:50.643Z,2.30
2023-02-21T02:22:40.481Z,2.13
2023-02-21T02:25:22.724Z,2.00
2023-02-21T02:28:16.349Z,1.67
2023-02-21T02:31:29.714Z,2.13
2023-02-21T02:34:37.578Z,2.87
2023-02-21T02:37:24.185Z,2.07
2023-02-21T02:40:00.220Z,2.53
2023-02-21T02:43:07.595Z,2.00
2023-02-21T02:45:44.740Z,2.03
2023-02-21T02:48:22.328Z,2.00
2023-02-21T02:50:52.494Z,1.90
2023-02-21T02:53:27.437Z,1.87
2023-02-21T02:55:58.373Z,2.27
2023-02-21T02:58:29.577Z,1.67
2023-02-21T03:01:09.062Z,1.43
2023-02-21T03:03:58.226Z,1.40
2023-02-21T03:06:39.449Z,1.33
2023-02-21T03:09:16.230Z,2.23
2023-02-21T03:11:53.488Z,1.40
2023-02-21T03:14:25.546Z,1.37
2023-02-21T03:17:17.524Z,1.53
2023-02-21T03:19:48.921Z,1.40
2023-02-21T03:22:20.946Z,1.60
2023-02-21T03:24:52.799Z,1.90
2023-02-21T03:27:23.116Z,1.43
2023-02-21T03:29:53.306Z,1.70
2023-02-21T03:32:26.434Z,1.80
2023-02-21T03:34:55.171Z,1.50
2023-02-21T03:37:32.158Z,1.53
2023-02-21T03:40:07.865Z,1.40
2023-02-21T03:42:36.134Z,1.90
2023-02-21T03:45:04.423Z,1.43
2023-02-21T03:47:32.632Z,1.83
2023-02-21T03:50:01.736Z,1.33
2023-02-21T03:52:30.115Z,1.53
2023-02-21T03:55:02.604Z,1.77
2023-02-21T03:57:31.224Z,1.10
2023-02-21T03:59:59.554Z,2.27
2023-02-21T04:02:28.043Z,1.47
2023-02-21T04:04:56.750Z,1.20
2023-02-21T04:07:24.901Z,1.30
2023-02-21T04:09:54.119Z,1.67
2023-02-21T04:12:24.324Z,1.43
2023-02-21T04:14:53.077Z,1.23
2023-02-21T04:17:21.484Z,1.40
2023-02-21T04:20:10.875Z,1.20
2023-02-21T04:22:40.750Z,1.60
2023-02-21T04:25:09.765Z,1.70
2023-02-21T04:27:39.538Z,1.27
2023-02-21T04:30:09.113Z,1.83
2023-02-21T04:32:37.342Z,1.30
2023-02-21T04:35:05.980Z,1.37
2023-02-21T04:37:34.202Z,1.40
2023-02-21T04:40:03.653Z,1.47
2023-02-21T04:42:32.126Z,1.70
2023-02-21T04:45:01.954Z,1.33
2023-02-21T04:47:30.421Z,1.20
2023-02-21T04:49:58.863Z,1.03
2023-02-21T04:52:27.300Z,1.20
2023-02-21T04:54:55.708Z,1.43
2023-02-21T04:57:24.202Z,1.50
2023-02-21T04:59:58.121Z,1.33
2023-02-21T05:02:29.254Z,1.10
2023-02-21T05:04:59.142Z,1.43
2023-02-21T05:07:43.382Z,1.10
2023-02-21T05:10:12.878Z,1.10
2023-02-21T05:12:41.171Z,1.03
2023-02-21T05:15:11.158Z,1.30
2023-02-21T05:17:41.504Z,1.10
2023-02-21T05:20:11.904Z,0.90
2023-02-21T05:22:44.632Z,1.20
2023-02-21T05:25:17.298Z,0.93
2023-02-21T05:27:46.268Z,1.03
2023-02-21T05:30:16.132Z,1.40
2023-02-21T05:32:46.068Z,1.40
2023-02-21T05:35:17.306Z,1.20
2023-02-21T05:37:46.259Z,1.23
2023-02-21T05:40:19.844Z,0.90
2023-02-21T05:42:47.982Z,1.10
2023-02-21T05:45:16.163Z,0.97
2023-02-21T05:47:45.748Z,1.43
2023-02-21T05:50:13.892Z,1.00
2023-02-21T05:52:42.041Z,1.23
2023-02-21T05:55:10.705Z,1.03
2023-02-21T05:57:40.088Z,1.20
2023-02-21T06:00:09.581Z,1.33
2023-02-21T06:02:38.015Z,1.17
2023-02-21T06:05:08.783Z,0.80
2023-02-21T06:07:36.925Z,1.43
2023-02-21T06:10:05.970Z,1.57
2023-02-21T06:12:34.149Z,1.00
2023-02-21T06:15:02.429Z,1.03
2023-02-21T06:17:30.625Z,1.30
2023-02-21T06:19:59.269Z,1.00
2023-02-21T06:22:29.486Z,1.43
2023-02-21T06:24:59.770Z,1.10
2023-02-21T06:27:29.047Z,1.20
2023-02-21T06:29:57.168Z,0.80
2023-02-21T06:32:25.634Z,1.00
2023-02-21T06:34:53.815Z,1.10
2023-02-21T06:37:22.139Z,1.13
2023-02-21T06:39:52.210Z,1.00
2023-02-21T06:42:21.373Z,1.37
2023-02-21T06:44:51.212Z,0.97
2023-02-21T06:47:19.770Z,1.23
2023-02-21T06:49:48.022Z,1.10
2023-02-21T06:52:16.970Z,1.27
2023-02-21T06:54:46.295Z,1.20
2023-02-21T06:57:16.732Z,0.90
2023-02-21T06:59:45.037Z,1.13
2023-02-21T07:02:19.420Z,1.03
2023-02-21T07:04:48.242Z,1.00
2023-02-21T07:07:18.009Z,1.30
2023-02-21T07:09:46.331Z,1.30
2023-02-21T07:12:22.663Z,1.37
2023-02-21T07:14:51.199Z,1.20
2023-02-21T07:17:22.585Z,1.40
2023-02-21T07:19:50.869Z,1.53
2023-02-21T07:22:26.091Z,1.50
2023-02-21T07:24:54.923Z,1.30
2023-02-21T07:27:24.871Z,1.37
2023-02-21T07:29:53.089Z,1.10
2023-02-21T07:34:50.939Z,1.13
2023-02-21T07:37:19.181Z,0.80
2023-02-21T07:39:47.422Z,1.27
2023-02-21T07:42:15.981Z,1.00
2023-02-21T07:44:45.637Z,1.43
2023-02-21T07:47:14.002Z,1.00
2023-02-21T07:49:42.765Z,1.47
2023-02-21T07:52:11.074Z,0.83
2023-02-21T07:54:39.307Z,1.20
2023-02-21T07:57:07.734Z,1.10
2023-02-21T07:59:35.959Z,1.10
2023-02-21T08:02:07.069Z,0.87
2023-02-21T08:04:35.381Z,1.30
2023-02-21T08:07:05.034Z,1.17
2023-02-21T08:09:33.431Z,1.10
2023-02-21T08:12:01.904Z,0.97
2023-02-21T08:14:30.311Z,0.90
2023-02-21T08:16:58.555Z,0.70
2023-02-21T08:19:28.340Z,1.10
2023-02-21T08:21:56.557Z,0.87
2023-02-21T08:24:25.355Z,0.80
2023-02-21T08:26:53.588Z,0.97
2023-02-21T08:29:21.797Z,0.90
2023-02-21T08:31:50.142Z,0.90
2023-02-21T08:34:18.433Z,0.90
2023-02-21T08:36:48.254Z,0.70
2023-02-21T08:39:16.490Z,0.70
2023-02-21T08:41:48.570Z,0.80
2023-02-21T08:44:18.410Z,0.60
2023-02-21T08:46:48.983Z,0.70
2023-02-21T08:49:18.154Z,0.60
2023-02-21T08:51:47.813Z,0.90
2023-02-21T08:54:19.487Z,0.93
2023-02-21T08:56:49.884Z,0.90
2023-02-21T08:59:18.599Z,0.87
2023-02-21T09:01:46.918Z,0.90
2023-02-21T09:04:15.691Z,0.80
2023-02-21T09:06:44.492Z,0.70
2023-02-21T09:09:14.284Z,0.80
2023-02-21T09:11:47.128Z,1.10
2023-02-21T09:14:17.043Z,0.80
2023-02-21T09:16:47.688Z,0.70
2023-02-21T09:19:17.709Z,0.90
2023-02-21T09:21:47.570Z,0.87
2023-02-21T09:24:18.195Z,0.90
2023-02-21T09:26:47.308Z,1.00
2023-02-21T09:29:19.547Z,0.90
2023-02-21T09:31:48.124Z,0.70
2023-02-21T09:34:17.198Z,1.03
2023-02-21T09:36:45.528Z,1.10
2023-02-21T09:39:15.309Z,1.00
2023-02-21T09:41:46.613Z,1.13
2023-02-21T09:44:18.364Z,1.07
2023-02-21T09:46:49.918Z,0.70
2023-02-21T09:49:24.696Z,1.00
2023-02-21T09:51:54.189Z,1.00
2023-02-21T09:54:28.915Z,1.30
2023-02-21T09:57:01.913Z,0.80
2023-02-21T09:59:31.641Z,1.00
2023-02-21T10:02:14.134Z,0.80
2023-02-21T10:04:57.175Z,0.90
2023-02-21T10:07:33.115Z,1.23
2023-02-21T10:10:08.623Z,1.00
2023-02-21T10:12:46.506Z,0.90
2023-02-21T10:15:34.471Z,0.80
2023-02-21T10:18:09.276Z,1.13
2023-02-21T10:20:40.706Z,1.00
2023-02-21T10:23:17.165Z,1.10
2023-02-21T10:25:47.405Z,0.90
2023-02-21T10:28:23.334Z,0.60
2023-02-21T10:30:57.162Z,0.80
2023-02-21T10:33:25.769Z,1.20
2023-02-21T10:35:55.213Z,1.00
2023-02-21T10:38:26.861Z,1.20
2023-02-21T10:40:57.975Z,0.80
2023-02-21T10:43:36.345Z,1.00
2023-02-21T10:46:12.825Z,0.80
2023-02-21T10:48:44.224Z,0.70
2023-02-21T10:51:30.770Z,1.00
2023-02-21T10:54:20.313Z,0.87
2023-02-21T10:56:49.868Z,0.80
2023-02-21T10:59:26.566Z,0.80
2023-02-21T11:01:56.452Z,1.30
2023-02-21T11:04:32.065Z,1.03
2023-02-21T11:07:05.352Z,0.80
2023-02-21T11:09:42.701Z,1.00
2023-02-21T11:12:23.693Z,1.10
2023-02-21T11:15:18.200Z,0.70
2023-02-21T11:17:47.171Z,0.90
2023-02-21T11:20:21.308Z,1.10
2023-02-21T11:22:51.285Z,0.70
2023-02-21T11:25:25.848Z,1.13
2023-02-21T11:28:03.853Z,0.90
2023-02-21T11:30:36.412Z,1.23
2023-02-21T11:33:06.527Z,1.20
2023-02-21T11:35:38.318Z,1.47
2023-02-21T11:38:31.623Z,1.40
2023-02-21T11:41:00.166Z,1.20
2023-02-21T11:43:30.962Z,1.53
2023-02-21T11:46:12.260Z,0.90
2023-02-21T11:48:49.322Z,1.50
2023-02-21T11:51:27.292Z,1.20
2023-02-21T11:53:55.799Z,1.40
2023-02-21T11:56:34.278Z,1.10
2023-02-21T11:59:14.520Z,1.20
2023-02-21T12:01:56.180Z,1.30
2023-02-21T12:04:46.097Z,1.27
2023-02-21T12:07:23.053Z,1.40
2023-02-21T12:09:57.615Z,1.33
2023-02-21T12:12:36.874Z,1.23
2023-02-21T12:15:17.035Z,1.20
2023-02-21T12:18:01.258Z,1.27
2023-02-21T12:20:56.732Z,1.63
2023-02-21T12:23:34.198Z,1.60
2023-02-21T12:26:21.796Z,1.73
2023-02-21T12:29:09.205Z,1.30
2023-02-21T12:31:55.074Z,1.73
2023-02-21T12:34:38.812Z,2.07
2023-02-21T12:37:22.220Z,1.80
2023-02-21T12:40:05.256Z,1.70
2023-02-21T12:42:51.477Z,1.90
2023-02-21T12:45:42.545Z,1.73
2023-02-21T12:48:18.075Z,1.40
2023-02-21T12:50:52.198Z,1.70
2023-02-21T12:53:27.215Z,1.77
2023-02-21T12:56:03.786Z,1.60
2023-02-21T12:58:36.348Z,1.60
2023-02-21T13:01:12.117Z,1.33
2023-02-21T13:03:53.078Z,1.90
2023-02-21T13:06:31.448Z,1.20
2023-02-21T13:09:11.029Z,1.80
2023-02-21T13:11:51.606Z,1.90
2023-02-21T13:14:25.664Z,1.57
2023-02-21T13:16:55.001Z,1.50
2023-02-21T13:19:24.320Z,1.43
2023-02-21T13:22:30.618Z,1.53
2023-02-21T13:25:09.543Z,1.90
2023-02-21T13:27:53.272Z,1.30
2023-02-21T13:30:27.022Z,1.47
2023-02-21T13:32:57.981Z,1.70
2023-02-21T13:35:32.610Z,1.60
2023-02-21T13:38:07.035Z,1.97
2023-02-21T13:40:39.122Z,1.67
2023-02-21T13:43:15.884Z,1.60
2023-02-21T13:45:45.767Z,1.50
2023-02-21T13:48:24.000Z,1.60
2023-02-21T13:50:53.972Z,2.00
2023-02-21T13:53:25.233Z,1.50
2023-02-21T13:56:42.496Z,1.70
2023-02-21T13:59:35.532Z,1.60
2023-02-21T14:02:29.660Z,1.70
2023-02-21T14:05:08.035Z,1.50
2023-02-21T14:07:47.131Z,1.30
2023-02-21T14:10:26.391Z,1.93
2023-02-21T14:13:01.888Z,1.70
2023-02-21T14:15:43.733Z,1.80
2023-02-21T14:18:31.924Z,1.63
2023-02-21T14:21:01.871Z,2.00
2023-02-21T14:23:42.248Z,1.50
2023-02-21T14:26:40.309Z,1.60
2023-02-21T14:29:16.316Z,1.30
2023-02-21T14:31:59.703Z,1.40
2023-02-21T14:34:38.853Z,1.13
2023-02-21T14:37:14.937Z,1.30
2023-02-21T14:39:47.383Z,1.20
2023-02-21T14:42:33.023Z,1.87
2023-02-21T14:45:28.960Z,1.50
2023-02-21T14:48:21.441Z,1.40
2023-02-21T14:51:11.135Z,1.73
2023-02-21T14:54:02.218Z,1.57
2023-02-21T14:56:48.833Z,1.83
2023-02-21T14:59:46.934Z,1.70
2023-02-21T15:02:31.223Z,1.30
2023-02-21T15:05:15.888Z,1.20
2023-02-21T15:07:55.342Z,1.60
2023-02-21T15:10:26.009Z,1.90
2023-02-21T15:12:57.249Z,1.60
2023-02-21T15:15:29.644Z,2.63
2023-02-21T15:18:03.104Z,1.10
2023-02-21T15:20:34.734Z,1.43
2023-02-21T15:23:12.521Z,2.10
2023-02-21T15:25:41.509Z,1.40
2023-02-21T15:28:21.842Z,1.67
2023-02-21T15:31:06.198Z,1.47
2023-02-21T15:33:35.888Z,1.57
2023-02-21T15:36:09.156Z,1.23
2023-02-21T15:38:43.613Z,1.17
2023-02-21T15:41:18.830Z,1.50
2023-02-21T15:43:52.636Z,1.47
2023-02-21T15:46:26.550Z,1.70
2023-02-21T15:48:58.303Z,1.50
2023-02-21T15:51:27.066Z,1.80
2023-02-21T15:54:26.008Z,1.50
2023-02-21T15:57:07.895Z,1.60
2023-02-21T15:59:38.936Z,1.63
2023-02-21T16:02:22.814Z,1.47
2023-02-21T16:04:52.358Z,1.30
2023-02-21T16:07:25.240Z,1.23
2023-02-21T16:10:04.532Z,0.93
2023-02-21T16:12:37.213Z,1.50
2023-02-21T16:15:09.346Z,1.40
2023-02-21T16:17:41.648Z,1.20
2023-02-21T16:20:19.164Z,1.70
2023-02-21T16:23:08.041Z,1.57
2023-02-21T16:25:36.770Z,2.30
2023-02-21T16:28:14.099Z,1.80
2023-02-21T16:30:42.867Z,1.60
2023-02-21T16:33:15.252Z,1.40
2023-02-21T16:35:44.660Z,1.57
2023-02-21T16:38:18.504Z,1.80
2023-02-21T16:40:49.380Z,1.60
2023-02-21T16:43:20.577Z,1.50
2023-02-21T16:45:49.902Z,1.20
2023-02-21T16:48:23.656Z,1.40
2023-02-21T16:50:53.979Z,1.10
2023-02-21T16:53:26.825Z,1.57
2023-02-21T16:55:55.136Z,1.40
2023-02-21T16:58:27.273Z,1.27
2023-02-21T17:00:59.124Z,1.23
2023-02-21T17:03:29.882Z,1.03
2023-02-21T17:06:00.352Z,1.30
2023-02-21T17:08:28.939Z,1.37
2023-02-21T17:10:58.140Z,1.27
2023-02-21T17:13:27.113Z,1.33
2023-02-21T17:15:55.398Z,1.30
2023-02-21T17:18:24.297Z,1.50
2023-02-21T17:20:54.091Z,1.50
2023-02-21T17:23:23.927Z,1.40
2023-02-21T17:25:52.182Z,1.27
2023-02-21T17:28:20.357Z,1.43
2023-02-21T17:30:48.788Z,1.60
2023-02-21T17:33:17.491Z,1.60
2023-02-21T17:35:45.839Z,1.50
2023-02-21T17:38:15.589Z,1.60
2023-02-21T17:40:46.577Z,1.70
2023-02-21T17:43:17.048Z,1.50
2023-02-21T17:45:46.822Z,1.50
2023-02-21T17:48:15.086Z,2.10
2023-02-21T17:50:43.490Z,1.63
2023-02-21T17:53:11.727Z,1.87
2023-02-21T17:55:41.709Z,1.90
2023-02-21T17:58:10.905Z,1.53
2023-02-21T18:00:39.438Z,1.70
2023-02-21T18:03:09.465Z,1.60
2023-02-21T18:05:37.850Z,1.63
2023-02-21T18:08:06.593Z,2.40
2023-02-21T18:10:35.019Z,2.00
2023-02-21T18:13:04.877Z,1.87
2023-02-21T18:15:33.125Z,2.10
2023-02-21T18:18:08.149Z,2.30
2023-02-21T18:20:36.701Z,1.80
2023-02-21T18:23:06.605Z,1.60
2023-02-21T18:25:35.970Z,2.00
2023-02-21T18:28:06.440Z,1.90
2023-02-21T18:30:34.884Z,2.07
2023-02-21T18:33:03.341Z,2.10
2023-02-21T18:35:31.708Z,2.03
2023-02-21T18:38:00.411Z,2.10
2023-02-21T18:40:35.362Z,1.90
2023-02-21T18:43:07.670Z,1.97
2023-02-21T18:45:35.827Z,1.97
2023-02-21T18:48:05.097Z,1.90
2023-02-21T18:50:35.524Z,2.33
2023-02-21T18:53:05.870Z,2.10
2023-02-21T18:55:34.079Z,2.50
2023-02-21T18:58:03.086Z,2.27
2023-02-21T19:00:34.039Z,2.00
2023-02-21T19:03:02.716Z,1.93
2023-02-21T19:05:32.662Z,2.00
2023-02-21T19:08:01.425Z,1.80
2023-02-21T19:10:30.752Z,1.90
2023-02-21T19:13:02.190Z,1.97
2023-02-21T19:15:35.402Z,2.00
2023-02-21T19:18:03.595Z,2.00
2023-02-21T19:20:31.906Z,1.57
2023-02-21T19:23:00.306Z,1.73
2023-02-21T19:25:29.650Z,1.47
2023-02-21T19:28:00.633Z,1.40
2023-02-21T19:30:30.156Z,1.63
2023-02-21T19:33:00.431Z,1.70
2023-02-21T19:35:30.173Z,1.90
2023-02-21T19:37:59.602Z,1.80
2023-02-21T19:40:28.886Z,1.80
2023-02-21T19:42:58.186Z,1.93
2023-02-21T19:45:27.121Z,1.63
2023-02-21T19:47:55.450Z,1.90
2023-02-21T19:50:26.079Z,2.00
2023-02-21T19:52:56.360Z,2.00
2023-02-21T19:55:25.120Z,1.83
2023-02-21T19:57:53.431Z,1.80
2023-02-21T20:00:22.242Z,1.83
2023-02-21T20:02:50.496Z,1.90
2023-02-21T20:05:19.046Z,1.83
2023-02-21T20:07:51.509Z,1.80
2023-02-21T20:10:25.366Z,1.70
2023-02-21T20:12:53.843Z,1.83
2023-02-21T20:15:22.089Z,1.87
2023-02-21T20:17:52.220Z,1.90
2023-02-21T20:20:20.953Z,1.93
2023-02-21T20:22:50.606Z,2.23
2023-02-21T20:25:19.033Z,2.10
2023-02-21T20:27:47.382Z,2.00
2023-02-21T20:30:17.709Z,2.20
2023-02-21T20:32:49.196Z,2.30
2023-02-21T20:35:19.285Z,2.10
2023-02-21T20:37:48.060Z,2.13
2023-02-21T20:40:19.268Z,1.40
2023-02-21T20:42:48.436Z,2.10
2023-02-21T20:45:18.642Z,1.53
2023-02-21T20:47:47.564Z,1.70
2023-02-21T20:50:21.247Z,1.60
2023-02-21T20:52:50.029Z,1.80
2023-02-21T20:55:22.486Z,1.70
2023-02-21T20:57:50.909Z,2.10
2023-02-21T21:00:38.036Z,1.73
2023-02-21T21:03:07.115Z,1.87
2023-02-21T21:05:35.391Z,1.90
2023-02-21T21:08:03.603Z,3.03
2023-02-21T21:10:33.935Z,1.90
2023-02-21T21:13:02.835Z,1.63
2023-02-21T21:15:31.200Z,2.03
2023-02-21T21:18:00.054Z,1.80
2023-02-21T21:20:31.011Z,2.13
2023-02-21T21:22:59.240Z,1.87
2023-02-21T21:25:27.407Z,2.00
2023-02-21T21:27:57.196Z,1.70
2023-02-21T21:30:25.482Z,2.20
2023-02-21T21:32:53.807Z,1.90
2023-02-21T21:35:22.818Z,1.87
2023-02-21T21:37:51.315Z,1.97
2023-02-21T21:40:24.211Z,2.17
2023-02-21T21:42:54.316Z,1.90
2023-02-21T21:45:26.164Z,1.90
2023-02-21T21:47:58.617Z,1.77
2023-02-21T21:50:27.381Z,1.80
2023-02-21T21:52:58.662Z,1.90
2023-02-21T21:55:29.205Z,1.93
2023-02-21T21:57:58.987Z,1.90
2023-02-21T22:00:31.198Z,1.90
2023-02-21T22:03:02.980Z,1.87
2023-02-21T22:05:32.649Z,2.07
2023-02-21T22:08:03.286Z,1.50
2023-02-21T22:10:31.447Z,1.80
2023-02-21T22:13:01.067Z,1.77
2023-02-21T22:15:31.493Z,2.57
2023-02-21T22:18:05.711Z,2.00
2023-02-21T22:20:39.746Z,2.17
2023-02-21T22:23:08.490Z,1.80
2023-02-21T22:25:38.054Z,2.03
2023-02-21T22:28:09.686Z,1.90
2023-02-21T22:30:39.631Z,1.80
2023-02-21T22:33:13.523Z,2.20
2023-02-21T22:35:42.594Z,1.70
2023-02-21T22:38:14.467Z,1.93
2023-02-21T22:40:43.980Z,1.90
2023-02-21T22:43:14.150Z,2.30
2023-02-21T22:45:50.197Z,1.87
2023-02-21T22:48:20.702Z,1.80
2023-02-21T22:50:50.114Z,1.83
2023-02-21T22:53:19.909Z,1.70
2023-02-21T22:55:53.514Z,1.70
2023-02-21T22:58:21.894Z,1.90
2023-02-21T23:00:53.510Z,1.83
2023-02-21T23:03:22.001Z,1.70
2023-02-21T23:05:52.009Z,1.90
2023-02-21T23:08:22.905Z,1.60
2023-02-21T23:10:51.718Z,1.90
2023-02-21T23:13:23.160Z,1.63
2023-02-21T23:15:58.382Z,1.97
2023-02-21T23:18:27.478Z,2.10
2023-02-21T23:20:58.951Z,2.00
2023-02-21T23:23:30.841Z,1.97
2023-02-21T23:26:00.140Z,2.10
2023-02-21T23:28:30.034Z,1.80
2023-02-21T23:31:00.240Z,2.60
2023-02-21T23:33:30.454Z,2.00
2023-02-21T23:35:59.019Z,2.27
2023-02-21T23:38:29.129Z,2.43
2023-02-21T23:41:02.183Z,2.20
2023-02-21T23:43:36.004Z,2.00
2023-02-21T23:46:09.398Z,2.30
2023-02-21T23:48:38.384Z,1.90
2023-02-21T23:51:08.271Z,2.37
2023-02-21T23:53:40.504Z,1.97
2023-02-21T23:56:13.283Z,2.33
2023-02-21T23:58:45.930Z,2.70
